sensor_id;sensor_type;location;lat;lon;timestamp;pressure;altitude;pressure_sealevel;temperature;humidity
76994;BME280;66749;47.406;18.822;2023-04-16T00:00:03;100094.50;;;7.45;84.40
76994;BME280;66749;47.406;18.822;2023-04-16T00:00:34;100098.94;;;7.43;84.18
76994;BME280;66749;47.406;18.822;2023-04-16T00:01:05;100086.91;;;7.40;83.43
76994;BME280;66749;47.406;18.822;2023-04-16T00:01:35;100095.69;;;7.38;83.67
76994;BME280;66749;47.406;18.822;2023-04-16T00:02:06;100097.53;;;7.36;83.53
76994;BME280;66749;47.406;18.822;2023-04-16T00:02:37;100102.66;;;7.37;83.77
76994;BME280;66749;47.406;18.822;2023-04-16T00:03:07;100104.41;;;7.37;83.70
76994;BME280;66749;47.406;18.822;2023-04-16T00:03:38;100099.22;;;7.37;83.63
76994;BME280;66749;47.406;18.822;2023-04-16T00:04:08;100099.28;;;7.35;83.92
76994;BME280;66749;47.406;18.822;2023-04-16T00:04:39;100101.13;;;7.33;84.07
76994;BME280;66749;47.406;18.822;2023-04-16T00:05:10;100099.22;;;7.37;84.07
76994;BME280;66749;47.406;18.822;2023-04-16T00:05:40;100100.22;;;7.34;84.04
76994;BME280;66749;47.406;18.822;2023-04-16T00:06:11;100100.22;;;7.34;84.02
76994;BME280;66749;47.406;18.822;2023-04-16T00:06:41;100101.81;;;7.37;84.17
76994;BME280;66749;47.406;18.822;2023-04-16T00:07:12;100104.41;;;7.37;84.10
76994;BME280;66749;47.406;18.822;2023-04-16T00:07:43;100094.94;;;7.36;84.01
76994;BME280;66749;47.406;18.822;2023-04-16T00:08:13;100102.03;;;7.32;84.21
76994;BME280;66749;47.406;18.822;2023-04-16T00:08:44;100098.59;;;7.32;84.20
76994;BME280;66749;47.406;18.822;2023-04-16T00:09:15;100094.31;;;7.31;84.09
76994;BME280;66749;47.406;18.822;2023-04-16T00:09:45;100094.22;;;7.32;83.74
76994;BME280;66749;47.406;18.822;2023-04-16T00:10:16;100095.22;;;7.30;84.22
76994;BME280;66749;47.406;18.822;2023-04-16T00:10:46;100091.88;;;7.28;84.15
76994;BME280;66749;47.406;18.822;2023-04-16T00:11:17;100097.00;;;7.29;84.11
76994;BME280;66749;47.406;18.822;2023-04-16T00:11:48;100097.81;;;7.30;84.07
76994;BME280;66749;47.406;18.822;2023-04-16T00:12:18;100093.56;;;7.29;83.98
76994;BME280;66749;47.406;18.822;2023-04-16T00:12:49;100099.66;;;7.28;84.23
76994;BME280;66749;47.406;18.822;2023-04-16T00:13:19;100102.25;;;7.28;84.44
76994;BME280;66749;47.406;18.822;2023-04-16T00:13:50;100096.22;;;7.27;83.84
76994;BME280;66749;47.406;18.822;2023-04-16T00:14:21;100096.31;;;7.26;83.94
76994;BME280;66749;47.406;18.822;2023-04-16T00:14:51;100093.84;;;7.22;83.86
76994;BME280;66749;47.406;18.822;2023-04-16T00:15:22;100096.50;;;7.21;83.92
76994;BME280;66749;47.406;18.822;2023-04-16T00:15:52;100094.75;;;7.21;83.57
76994;BME280;66749;47.406;18.822;2023-04-16T00:16:23;100092.31;;;7.18;83.61
76994;BME280;66749;47.406;18.822;2023-04-16T00:16:53;100094.00;;;7.19;83.79
76994;BME280;66749;47.406;18.822;2023-04-16T00:17:24;100088.16;;;7.14;83.41
76994;BME280;66749;47.406;18.822;2023-04-16T00:17:55;100093.34;;;7.14;84.01
76994;BME280;66749;47.406;18.822;2023-04-16T00:18:25;100090.84;;;7.13;83.79
76994;BME280;66749;47.406;18.822;2023-04-16T00:18:56;100096.09;;;7.11;83.36
76994;BME280;66749;47.406;18.822;2023-04-16T00:19:27;100085.94;;;7.07;83.07
76994;BME280;66749;47.406;18.822;2023-04-16T00:19:58;100085.25;;;7.03;83.35
76994;BME280;66749;47.406;18.822;2023-04-16T00:20:28;100086.97;;;7.03;84.21
76994;BME280;66749;47.406;18.822;2023-04-16T00:20:59;100087.84;;;7.03;83.91
76994;BME280;66749;47.406;18.822;2023-04-16T00:21:29;100088.88;;;6.99;84.07
76994;BME280;66749;47.406;18.822;2023-04-16T00:22:00;100089.72;;;7.00;84.17
76994;BME280;66749;47.406;18.822;2023-04-16T00:22:31;100081.94;;;7.00;84.06
76994;BME280;66749;47.406;18.822;2023-04-16T00:23:02;100088.88;;;6.99;84.49
76994;BME280;66749;47.406;18.822;2023-04-16T00:23:32;100084.69;;;6.97;84.17
76994;BME280;66749;47.406;18.822;2023-04-16T00:24:03;100084.72;;;6.95;84.61
76994;BME280;66749;47.406;18.822;2023-04-16T00:24:34;100088.19;;;6.95;84.12
76994;BME280;66749;47.406;18.822;2023-04-16T00:25:05;100095.97;;;6.95;84.58
76994;BME280;66749;47.406;18.822;2023-04-16T00:25:35;100094.22;;;6.96;84.36
76994;BME280;66749;47.406;18.822;2023-04-16T00:26:07;100095.91;;;6.97;84.46
76994;BME280;66749;47.406;18.822;2023-04-16T00:26:38;100090.72;;;6.97;84.57
76994;BME280;66749;47.406;18.822;2023-04-16T00:27:10;100095.06;;;6.97;84.38
76994;BME280;66749;47.406;18.822;2023-04-16T00:27:40;100091.66;;;6.94;84.67
76994;BME280;66749;47.406;18.822;2023-04-16T00:28:11;100093.38;;;6.95;84.55
76994;BME280;66749;47.406;18.822;2023-04-16T00:28:42;100093.38;;;6.95;84.18
76994;BME280;66749;47.406;18.822;2023-04-16T00:29:12;100091.66;;;6.94;84.47
76994;BME280;66749;47.406;18.822;2023-04-16T00:29:43;100089.16;;;6.93;84.33
76994;BME280;66749;47.406;18.822;2023-04-16T00:30:13;100094.22;;;6.96;84.13
76994;BME280;66749;47.406;18.822;2023-04-16T00:30:44;100092.50;;;6.95;84.13
76994;BME280;66749;47.406;18.822;2023-04-16T00:31:15;100087.31;;;6.95;84.36
76994;BME280;66749;47.406;18.822;2023-04-16T00:31:45;100089.91;;;6.95;84.59
76994;BME280;66749;47.406;18.822;2023-04-16T00:32:16;100086.47;;;6.94;84.38
76994;BME280;66749;47.406;18.822;2023-04-16T00:32:47;100084.72;;;6.95;84.56
76994;BME280;66749;47.406;18.822;2023-04-16T00:33:17;100090.78;;;6.95;84.66
76994;BME280;66749;47.406;18.822;2023-04-16T00:33:48;100096.81;;;6.96;84.94
76994;BME280;66749;47.406;18.822;2023-04-16T00:34:18;100087.41;;;6.93;84.79
76994;BME280;66749;47.406;18.822;2023-04-16T00:34:49;100095.97;;;6.95;85.13
76994;BME280;66749;47.406;18.822;2023-04-16T00:35:20;100083.84;;;6.96;84.89
76994;BME280;66749;47.406;18.822;2023-04-16T00:35:50;100094.16;;;6.98;84.86
76994;BME280;66749;47.406;18.822;2023-04-16T00:36:25;100088.81;;;7.01;84.80
76994;BME280;66749;47.406;18.822;2023-04-16T00:36:56;100090.72;;;6.97;85.08
76994;BME280;66749;47.406;18.822;2023-04-16T00:37:27;100101.84;;;6.99;85.46
76994;BME280;66749;47.406;18.822;2023-04-16T00:37:57;100093.91;;;7.02;84.89
76994;BME280;66749;47.406;18.822;2023-04-16T00:38:28;100105.13;;;7.03;85.30
76994;BME280;66749;47.406;18.822;2023-04-16T00:38:59;100098.22;;;7.03;84.83
76994;BME280;66749;47.406;18.822;2023-04-16T00:39:30;100094.75;;;7.03;85.12
76994;BME280;66749;47.406;18.822;2023-04-16T00:40:00;100097.31;;;7.04;85.19
76994;BME280;66749;47.406;18.822;2023-04-16T00:40:31;100097.31;;;7.04;85.64
76994;BME280;66749;47.406;18.822;2023-04-16T00:41:02;100098.06;;;7.06;85.26
76994;BME280;66749;47.406;18.822;2023-04-16T00:41:32;100101.50;;;7.07;85.77
76994;BME280;66749;47.406;18.822;2023-04-16T00:42:03;100099.75;;;7.07;85.15
76994;BME280;66749;47.406;18.822;2023-04-16T00:42:33;100099.75;;;7.07;85.37
76994;BME280;66749;47.406;18.822;2023-04-16T00:43:06;100101.34;;;7.10;84.47
76994;BME280;66749;47.406;18.822;2023-04-16T00:43:36;100103.09;;;7.09;84.76
76994;BME280;66749;47.406;18.822;2023-04-16T00:44:07;100106.53;;;7.10;84.32
76994;BME280;66749;47.406;18.822;2023-04-16T00:44:37;100097.16;;;7.07;84.67
76994;BME280;66749;47.406;18.822;2023-04-16T00:45:09;100097.91;;;7.09;84.64
76994;BME280;66749;47.406;18.822;2023-04-16T00:45:40;100097.00;;;7.10;84.59
76994;BME280;66749;47.406;18.822;2023-04-16T00:46:10;100091.13;;;7.07;84.43
76994;BME280;66749;47.406;18.822;2023-04-16T00:46:41;100099.75;;;7.07;84.20
76994;BME280;66749;47.406;18.822;2023-04-16T00:47:12;100089.44;;;7.06;84.15
76994;BME280;66749;47.406;18.822;2023-04-16T00:47:43;100094.72;;;7.04;84.04
76994;BME280;66749;47.406;18.822;2023-04-16T00:48:13;100089.72;;;7.00;83.93
76994;BME280;66749;47.406;18.822;2023-04-16T00:48:44;100083.84;;;6.96;83.91
76994;BME280;66749;47.406;18.822;2023-04-16T00:49:15;100094.22;;;6.96;83.69
76994;BME280;66749;47.406;18.822;2023-04-16T00:49:46;100089.78;;;6.98;83.54
76994;BME280;66749;47.406;18.822;2023-04-16T00:50:17;100087.19;;;6.98;83.79
76994;BME280;66749;47.406;18.822;2023-04-16T00:50:48;100093.31;;;6.97;83.69
76994;BME280;66749;47.406;18.822;2023-04-16T00:51:18;100093.38;;;6.95;83.18
76994;BME280;66749;47.406;18.822;2023-04-16T00:51:52;100091.00;;;6.91;83.27
76994;BME280;66749;47.406;18.822;2023-04-16T00:52:23;100084.03;;;6.91;83.57
76994;BME280;66749;47.406;18.822;2023-04-16T00:52:54;100089.22;;;6.91;83.27
76994;BME280;66749;47.406;18.822;2023-04-16T00:53:26;100084.13;;;6.90;83.54
76994;BME280;66749;47.406;18.822;2023-04-16T00:53:56;100088.47;;;6.89;83.61
76994;BME280;66749;47.406;18.822;2023-04-16T00:54:27;100089.31;;;6.90;83.69
76994;BME280;66749;47.406;18.822;2023-04-16T00:54:58;100094.50;;;6.90;83.57
76994;BME280;66749;47.406;18.822;2023-04-16T00:55:30;100100.59;;;6.89;83.54
76994;BME280;66749;47.406;18.822;2023-04-16T00:56:05;100099.69;;;6.90;83.97
76994;BME280;66749;47.406;18.822;2023-04-16T00:56:36;100097.94;;;6.90;83.99
76994;BME280;66749;47.406;18.822;2023-04-16T00:57:09;100100.44;;;6.92;84.03
76994;BME280;66749;47.406;18.822;2023-04-16T00:57:39;100099.59;;;6.91;84.26
76994;BME280;66749;47.406;18.822;2023-04-16T00:58:10;100102.34;;;6.88;84.79
76994;BME280;66749;47.406;18.822;2023-04-16T00:58:41;100098.13;;;6.86;84.81
76994;BME280;66749;47.406;18.822;2023-04-16T00:59:11;100102.34;;;6.88;84.35
76994;BME280;66749;47.406;18.822;2023-04-16T00:59:42;100109.34;;;6.86;84.26
76994;BME280;66749;47.406;18.822;2023-04-16T01:00:13;100100.03;;;6.82;84.05
76994;BME280;66749;47.406;18.822;2023-04-16T01:00:44;100100.88;;;6.83;83.99
76994;BME280;66749;47.406;18.822;2023-04-16T01:01:14;100104.31;;;6.83;83.96
76994;BME280;66749;47.406;18.822;2023-04-16T01:01:45;100099.19;;;6.82;84.19
76994;BME280;66749;47.406;18.822;2023-04-16T01:02:16;100102.47;;;6.85;83.90
76994;BME280;66749;47.406;18.822;2023-04-16T01:02:47;100109.34;;;6.86;83.82
76994;BME280;66749;47.406;18.822;2023-04-16T01:03:17;100099.13;;;6.83;83.80
76994;BME280;66749;47.406;18.822;2023-04-16T01:03:48;100105.91;;;6.86;83.54
76994;BME280;66749;47.406;18.822;2023-04-16T01:04:20;100107.66;;;6.85;83.72
76994;BME280;66749;47.406;18.822;2023-04-16T01:04:50;100107.66;;;6.85;83.36
76994;BME280;66749;47.406;18.822;2023-04-16T01:05:21;100106.97;;;6.82;83.70
76994;BME280;66749;47.406;18.822;2023-04-16T01:05:51;100106.97;;;6.82;83.19
76994;BME280;66749;47.406;18.822;2023-04-16T01:06:22;100108.78;;;6.80;83.52
76994;BME280;66749;47.406;18.822;2023-04-16T01:06:53;100109.69;;;6.79;83.49
76994;BME280;66749;47.406;18.822;2023-04-16T01:07:23;100105.41;;;6.78;83.60
76994;BME280;66749;47.406;18.822;2023-04-16T01:07:57;100103.72;;;6.77;83.23
76994;BME280;66749;47.406;18.822;2023-04-16T01:08:28;100113.41;;;6.73;83.26
76994;BME280;66749;47.406;18.822;2023-04-16T01:08:59;100099.81;;;6.68;83.32
76994;BME280;66749;47.406;18.822;2023-04-16T01:09:30;100102.31;;;6.70;82.99
76994;BME280;66749;47.406;18.822;2023-04-16T01:10:01;100108.34;;;6.70;83.08
76994;BME280;66749;47.406;18.822;2023-04-16T01:10:32;100104.91;;;6.70;83.50
76994;BME280;66749;47.406;18.822;2023-04-16T01:11:02;100104.91;;;6.70;82.96
76994;BME280;66749;47.406;18.822;2023-04-16T01:11:33;100104.91;;;6.70;83.32
76994;BME280;66749;47.406;18.822;2023-04-16T01:12:04;100107.66;;;6.66;83.19
76994;BME280;66749;47.406;18.822;2023-04-16T01:12:34;100106.81;;;6.66;83.19
76994;BME280;66749;47.406;18.822;2023-04-16T01:13:05;100105.97;;;6.65;82.91
76994;BME280;66749;47.406;18.822;2023-04-16T01:13:35;100105.25;;;6.62;83.22
76994;BME280;66749;47.406;18.822;2023-04-16T01:14:09;100107.94;;;6.60;83.37
76994;BME280;66749;47.406;18.822;2023-04-16T01:14:39;100107.16;;;6.58;83.16
76994;BME280;66749;47.406;18.822;2023-04-16T01:15:10;100102.81;;;6.59;83.59
76994;BME280;66749;47.406;18.822;2023-04-16T01:15:41;100106.19;;;6.61;83.35
76994;BME280;66749;47.406;18.822;2023-04-16T01:16:11;100099.38;;;6.58;83.29
76994;BME280;66749;47.406;18.822;2023-04-16T01:16:42;100109.75;;;6.58;83.22
76994;BME280;66749;47.406;18.822;2023-04-16T01:17:13;100099.38;;;6.58;83.43
76994;BME280;66749;47.406;18.822;2023-04-16T01:17:44;100102.81;;;6.59;83.30
76994;BME280;66749;47.406;18.822;2023-04-16T01:18:17;100103.72;;;6.58;83.28
76994;BME280;66749;47.406;18.822;2023-04-16T01:18:47;100106.38;;;6.56;83.25
76994;BME280;66749;47.406;18.822;2023-04-16T01:19:18;100103.72;;;6.58;83.34
76994;BME280;66749;47.406;18.822;2023-04-16T01:19:49;100101.19;;;6.56;83.27
76994;BME280;66749;47.406;18.822;2023-04-16T01:20:19;100101.25;;;6.55;83.97
76994;BME280;66749;47.406;18.822;2023-04-16T01:20:50;100104.69;;;6.55;84.06
76994;BME280;66749;47.406;18.822;2023-04-16T01:21:21;100105.59;;;6.54;83.40
76994;BME280;66749;47.406;18.822;2023-04-16T01:21:51;100105.69;;;6.53;84.10
76994;BME280;66749;47.406;18.822;2023-04-16T01:22:22;100108.19;;;6.54;83.57
76994;BME280;66749;47.406;18.822;2023-04-16T01:22:52;100107.28;;;6.55;83.99
76994;BME280;66749;47.406;18.822;2023-04-16T01:23:23;100113.44;;;6.53;83.71
76994;BME280;66749;47.406;18.822;2023-04-16T01:23:54;100109.94;;;6.54;83.58
76994;BME280;66749;47.406;18.822;2023-04-16T01:24:25;100114.22;;;6.55;83.70
76994;BME280;66749;47.406;18.822;2023-04-16T01:24:55;100110.97;;;6.50;84.65
76994;BME280;66749;47.406;18.822;2023-04-16T01:25:26;100110.94;;;6.51;84.06
76994;BME280;66749;47.406;18.822;2023-04-16T01:25:56;100113.53;;;6.51;84.88
76994;BME280;66749;47.406;18.822;2023-04-16T01:26:27;100109.19;;;6.52;84.34
76994;BME280;66749;47.406;18.822;2023-04-16T01:26:58;100111.56;;;6.56;84.14
76994;BME280;66749;47.406;18.822;2023-04-16T01:27:28;100109.78;;;6.57;83.92
76994;BME280;66749;47.406;18.822;2023-04-16T01:28:00;100111.69;;;6.53;84.59
76994;BME280;66749;47.406;18.822;2023-04-16T01:28:31;100110.13;;;6.49;84.58
76994;BME280;66749;47.406;18.822;2023-04-16T01:29:01;100113.44;;;6.53;84.78
76994;BME280;66749;47.406;18.822;2023-04-16T01:29:32;100117.72;;;6.54;84.65
76994;BME280;66749;47.406;18.822;2023-04-16T01:30:03;100109.25;;;6.50;84.67
76994;BME280;66749;47.406;18.822;2023-04-16T01:30:34;100106.66;;;6.50;84.88
76994;BME280;66749;47.406;18.822;2023-04-16T01:31:05;100106.59;;;6.52;84.84
76994;BME280;66749;47.406;18.822;2023-04-16T01:31:35;100107.44;;;6.52;84.02
76994;BME280;66749;47.406;18.822;2023-04-16T01:32:06;100109.19;;;6.52;83.87
76994;BME280;66749;47.406;18.822;2023-04-16T01:32:37;100108.34;;;6.51;84.33
76994;BME280;66749;47.406;18.822;2023-04-16T01:33:11;100099.84;;;6.48;84.13
76994;BME280;66749;47.406;18.822;2023-04-16T01:33:42;100108.47;;;6.48;84.25
76994;BME280;66749;47.406;18.822;2023-04-16T01:34:12;100113.63;;;6.48;84.15
76994;BME280;66749;47.406;18.822;2023-04-16T01:34:43;100111.97;;;6.47;83.84
76994;BME280;66749;47.406;18.822;2023-04-16T01:35:14;100111.03;;;6.48;84.04
76994;BME280;66749;47.406;18.822;2023-04-16T01:35:44;100109.38;;;6.47;84.58
76994;BME280;66749;47.406;18.822;2023-04-16T01:36:15;100104.13;;;6.49;83.55
76994;BME280;66749;47.406;18.822;2023-04-16T01:36:46;100106.78;;;6.47;84.24
76994;BME280;66749;47.406;18.822;2023-04-16T01:37:16;100104.19;;;6.47;84.08
76994;BME280;66749;47.406;18.822;2023-04-16T01:37:49;100101.66;;;6.46;84.22
76994;BME280;66749;47.406;18.822;2023-04-16T01:38:19;100105.03;;;6.48;84.23
76994;BME280;66749;47.406;18.822;2023-04-16T01:38:50;100108.47;;;6.48;84.19
76994;BME280;66749;47.406;18.822;2023-04-16T01:39:21;100104.94;;;6.49;84.01
76994;BME280;66749;47.406;18.822;2023-04-16T01:39:51;100104.25;;;6.46;83.84
76994;BME280;66749;47.406;18.822;2023-04-16T01:40:22;100103.41;;;6.45;83.87
76994;BME280;66749;47.406;18.822;2023-04-16T01:40:56;100096.41;;;6.47;83.74
76994;BME280;66749;47.406;18.822;2023-04-16T01:41:27;100108.47;;;6.48;84.24
76994;BME280;66749;47.406;18.822;2023-04-16T01:41:57;100106.84;;;6.46;83.71
76994;BME280;66749;47.406;18.822;2023-04-16T01:42:28;100106.00;;;6.45;83.77
76994;BME280;66749;47.406;18.822;2023-04-16T01:42:59;100105.94;;;6.47;84.03
76994;BME280;66749;47.406;18.822;2023-04-16T01:43:29;100094.81;;;6.45;83.62
76994;BME280;66749;47.406;18.822;2023-04-16T01:44:00;100106.00;;;6.45;84.49
76994;BME280;66749;47.406;18.822;2023-04-16T01:44:30;100105.09;;;6.46;84.06
76994;BME280;66749;47.406;18.822;2023-04-16T01:45:01;100099.06;;;6.46;84.58
76994;BME280;66749;47.406;18.822;2023-04-16T01:45:33;100102.34;;;6.49;84.31
76994;BME280;66749;47.406;18.822;2023-04-16T01:46:13;100107.53;;;6.49;84.21
76994;BME280;66749;47.406;18.822;2023-04-16T01:46:44;100106.78;;;6.47;84.24
76994;BME280;66749;47.406;18.822;2023-04-16T01:47:15;100111.03;;;6.48;84.60
76994;BME280;66749;47.406;18.822;2023-04-16T01:47:48;100109.38;;;6.47;84.39
76994;BME280;66749;47.406;18.822;2023-04-16T01:48:19;100106.66;;;6.50;84.82
76994;BME280;66749;47.406;18.822;2023-04-16T01:48:49;100105.78;;;6.50;84.01
76994;BME280;66749;47.406;18.822;2023-04-16T01:49:23;100115.28;;;6.51;84.16
76994;BME280;66749;47.406;18.822;2023-04-16T01:49:54;100104.91;;;6.51;84.55
76994;BME280;66749;47.406;18.822;2023-04-16T01:50:25;100110.03;;;6.52;83.98
76994;BME280;66749;47.406;18.822;2023-04-16T01:50:56;100107.34;;;6.54;84.02
76994;BME280;66749;47.406;18.822;2023-04-16T01:51:27;100104.00;;;6.52;84.30
76994;BME280;66749;47.406;18.822;2023-04-16T01:51:58;100107.34;;;6.54;83.93
76994;BME280;66749;47.406;18.822;2023-04-16T01:52:29;100103.16;;;6.51;84.31
76994;BME280;66749;47.406;18.822;2023-04-16T01:52:59;100102.31;;;6.51;84.69
76994;BME280;66749;47.406;18.822;2023-04-16T01:53:31;100105.69;;;6.53;83.85
76994;BME280;66749;47.406;18.822;2023-04-16T01:54:02;100104.06;;;6.50;84.26
76994;BME280;66749;47.406;18.822;2023-04-16T01:54:33;100110.13;;;6.49;84.54
76994;BME280;66749;47.406;18.822;2023-04-16T01:55:04;100097.25;;;6.48;84.23
76994;BME280;66749;47.406;18.822;2023-04-16T01:55:35;100106.84;;;6.46;83.90
76994;BME280;66749;47.406;18.822;2023-04-16T01:56:05;100103.50;;;6.44;84.23
76994;BME280;66749;47.406;18.822;2023-04-16T01:56:36;100104.34;;;6.44;83.87
76994;BME280;66749;47.406;18.822;2023-04-16T01:57:07;100108.59;;;6.45;84.12
76994;BME280;66749;47.406;18.822;2023-04-16T01:57:38;100110.28;;;6.46;84.37
76994;BME280;66749;47.406;18.822;2023-04-16T01:58:08;100102.50;;;6.46;84.20
76994;BME280;66749;47.406;18.822;2023-04-16T01:58:40;100105.88;;;6.48;83.87
76994;BME280;66749;47.406;18.822;2023-04-16T01:59:12;100106.84;;;6.46;83.39
76994;BME280;66749;47.406;18.822;2023-04-16T01:59:42;100106.94;;;6.44;84.01
76994;BME280;66749;47.406;18.822;2023-04-16T02:00:13;100112.03;;;6.46;84.25
76994;BME280;66749;47.406;18.822;2023-04-16T02:00:43;100114.56;;;6.47;84.01
76994;BME280;66749;47.406;18.822;2023-04-16T02:01:14;100110.34;;;6.45;84.37
76994;BME280;66749;47.406;18.822;2023-04-16T02:01:45;100111.19;;;6.45;84.43
76994;BME280;66749;47.406;18.822;2023-04-16T02:02:16;100110.28;;;6.46;84.51
76994;BME280;66749;47.406;18.822;2023-04-16T02:02:47;100107.69;;;6.46;84.43
76994;BME280;66749;47.406;18.822;2023-04-16T02:03:18;100106.78;;;6.47;84.42
76994;BME280;66749;47.406;18.822;2023-04-16T02:03:50;100110.13;;;6.49;84.28
76994;BME280;66749;47.406;18.822;2023-04-16T02:04:20;100105.09;;;6.46;84.95
76994;BME280;66749;47.406;18.822;2023-04-16T02:04:51;100102.50;;;6.46;84.43
76994;BME280;66749;47.406;18.822;2023-04-16T02:05:22;100101.59;;;6.47;84.43
76994;BME280;66749;47.406;18.822;2023-04-16T02:05:52;100108.38;;;6.50;84.71
76994;BME280;66749;47.406;18.822;2023-04-16T02:06:23;100110.13;;;6.49;85.18
76994;BME280;66749;47.406;18.822;2023-04-16T02:06:53;100106.72;;;6.49;84.53
76994;BME280;66749;47.406;18.822;2023-04-16T02:07:24;100105.78;;;6.50;84.66
76994;BME280;66749;47.406;18.822;2023-04-16T02:07:55;100109.25;;;6.50;84.45
76994;BME280;66749;47.406;18.822;2023-04-16T02:08:26;100110.13;;;6.49;84.28
76994;BME280;66749;47.406;18.822;2023-04-16T02:08:56;100111.84;;;6.50;84.71
76994;BME280;66749;47.406;18.822;2023-04-16T02:09:27;100105.09;;;6.46;84.51
76994;BME280;66749;47.406;18.822;2023-04-16T02:09:57;100113.78;;;6.45;84.64
76994;BME280;66749;47.406;18.822;2023-04-16T02:10:28;100108.47;;;6.48;84.77
76994;BME280;66749;47.406;18.822;2023-04-16T02:10:59;100107.53;;;6.49;85.01
76994;BME280;66749;47.406;18.822;2023-04-16T02:11:30;100113.63;;;6.48;85.11
76994;BME280;66749;47.406;18.822;2023-04-16T02:12:01;100110.34;;;6.45;85.17
76994;BME280;66749;47.406;18.822;2023-04-16T02:12:34;100109.59;;;6.43;85.80
76994;BME280;66749;47.406;18.822;2023-04-16T02:13:05;100109.59;;;6.43;85.57
76994;BME280;66749;47.406;18.822;2023-04-16T02:13:36;100114.97;;;6.38;86.12
76994;BME280;66749;47.406;18.822;2023-04-16T02:14:06;100112.38;;;6.38;85.76
76994;BME280;66749;47.406;18.822;2023-04-16T02:14:38;100113.97;;;6.40;86.26
76994;BME280;66749;47.406;18.822;2023-04-16T02:15:08;100123.16;;;6.48;85.71
76994;BME280;66749;47.406;18.822;2023-04-16T02:15:39;100116.22;;;6.48;86.33
76994;BME280;66749;47.406;18.822;2023-04-16T02:16:13;100116.16;;;6.50;86.18
76994;BME280;66749;47.406;18.822;2023-04-16T02:16:44;100118.72;;;6.51;85.90
76994;BME280;66749;47.406;18.822;2023-04-16T02:17:14;100116.16;;;6.50;86.25
76994;BME280;66749;47.406;18.822;2023-04-16T02:17:46;100120.50;;;6.49;86.35
76994;BME280;66749;47.406;18.822;2023-04-16T02:18:18;100123.09;;;6.49;86.31
76994;BME280;66749;47.406;18.822;2023-04-16T02:18:48;100122.16;;;6.52;86.02
76994;BME280;66749;47.406;18.822;2023-04-16T02:19:19;100117.03;;;6.50;85.62
76994;BME280;66749;47.406;18.822;2023-04-16T02:19:49;100120.38;;;6.52;86.09
76994;BME280;66749;47.406;18.822;2023-04-16T02:20:20;100121.16;;;6.54;85.51
76994;BME280;66749;47.406;18.822;2023-04-16T02:20:51;100121.16;;;6.54;85.75
76994;BME280;66749;47.406;18.822;2023-04-16T02:21:21;100128.78;;;6.57;85.32
76994;BME280;66749;47.406;18.822;2023-04-16T02:21:52;100121.91;;;6.56;85.75
76994;BME280;66749;47.406;18.822;2023-04-16T02:22:23;100131.44;;;6.56;85.83
76994;BME280;66749;47.406;18.822;2023-04-16T02:22:54;100128.94;;;6.54;85.47
76994;BME280;66749;47.406;18.822;2023-04-16T02:23:24;100123.59;;;6.57;85.82
76994;BME280;66749;47.406;18.822;2023-04-16T02:23:55;100131.44;;;6.56;85.46
76994;BME280;66749;47.406;18.822;2023-04-16T02:24:27;100137.63;;;6.53;86.09
76994;BME280;66749;47.406;18.822;2023-04-16T02:24:57;100140.22;;;6.53;85.74
76994;BME280;66749;47.406;18.822;2023-04-16T02:25:28;100140.41;;;6.49;86.31
76994;BME280;66749;47.406;18.822;2023-04-16T02:25:58;100134.38;;;6.48;85.80
76994;BME280;66749;47.406;18.822;2023-04-16T02:26:30;100135.22;;;6.49;85.81
76994;BME280;66749;47.406;18.822;2023-04-16T02:27:00;100134.38;;;6.48;85.41
76994;BME280;66749;47.406;18.822;2023-04-16T02:27:31;100135.22;;;6.49;85.33
76994;BME280;66749;47.406;18.822;2023-04-16T02:28:02;100137.88;;;6.47;85.57
76994;BME280;66749;47.406;18.822;2023-04-16T02:28:33;100135.38;;;6.46;85.40
76994;BME280;66749;47.406;18.822;2023-04-16T02:29:03;100140.41;;;6.49;85.16
76994;BME280;66749;47.406;18.822;2023-04-16T02:29:34;100137.03;;;6.47;85.58
76994;BME280;66749;47.406;18.822;2023-04-16T02:30:05;100128.50;;;6.45;85.39
76994;BME280;66749;47.406;18.822;2023-04-16T02:30:37;100135.28;;;6.47;85.15
76994;BME280;66749;47.406;18.822;2023-04-16T02:31:08;100134.38;;;6.48;85.23
76994;BME280;66749;47.406;18.822;2023-04-16T02:31:39;100137.81;;;6.49;85.32
76994;BME280;66749;47.406;18.822;2023-04-16T02:32:09;100131.84;;;6.47;85.44
76994;BME280;66749;47.406;18.822;2023-04-16T02:32:40;100136.97;;;6.48;85.34
76994;BME280;66749;47.406;18.822;2023-04-16T02:33:11;100139.63;;;6.47;85.42
76994;BME280;66749;47.406;18.822;2023-04-16T02:33:42;100136.19;;;6.46;85.59
76994;BME280;66749;47.406;18.822;2023-04-16T02:34:13;100139.56;;;6.48;85.43
76994;BME280;66749;47.406;18.822;2023-04-16T02:34:44;100141.31;;;6.48;85.40
76994;BME280;66749;47.406;18.822;2023-04-16T02:35:14;100136.19;;;6.46;85.68
76994;BME280;66749;47.406;18.822;2023-04-16T02:35:45;100139.56;;;6.48;85.09
76994;BME280;66749;47.406;18.822;2023-04-16T02:36:17;100138.72;;;6.48;85.55
76994;BME280;66749;47.406;18.822;2023-04-16T02:36:48;100136.97;;;6.48;84.82
76994;BME280;66749;47.406;18.822;2023-04-16T02:37:18;100136.13;;;6.48;85.30
76994;BME280;66749;47.406;18.822;2023-04-16T02:37:49;100136.19;;;6.46;85.10
76994;BME280;66749;47.406;18.822;2023-04-16T02:38:20;100138.03;;;6.44;85.17
76994;BME280;66749;47.406;18.822;2023-04-16T02:38:50;100138.88;;;6.45;85.48
76994;BME280;66749;47.406;18.822;2023-04-16T02:39:21;100131.16;;;6.43;85.65
76994;BME280;66749;47.406;18.822;2023-04-16T02:39:51;100137.22;;;6.42;85.28
76994;BME280;66749;47.406;18.822;2023-04-16T02:40:22;100131.16;;;6.43;85.44
76994;BME280;66749;47.406;18.822;2023-04-16T02:40:53;100133.75;;;6.43;85.23
76994;BME280;66749;47.406;18.822;2023-04-16T02:41:23;100131.16;;;6.43;84.74